M I D A S
Marine Information and Data Acquisition System
Tripno 2107 of the Zeeleeuw from 2011-05-23 06:25:37 to 2011-05-23 16:36:08
Back to CruiseResearch ActivitiesStationsMapUnderway DataData graphs

EquipmentUnitsComments
TimeDGPSUTC
LatitudeDGPSDM.mWGS84
LongitudeDGPSDM.mWGS84
SpeedMeteo Stationm/sRelative wind speed
DirectionMeteo StationdegRelative wind direction
TemperatureMeteo Stationdeg CelciusAir temperature
PressureMeteo StationPaAtmospheric pressure
HumidityMeteo Station%Relative humidity
Missing or incorrect values are displayed as -999
Metereological data collected by the RV Zeeleeuw from 2011-05-23 06:20:28 to 2011-05-23 16:52:40
Time Latitude Longitude Speed Direction Temperature Pressure Humidity
2011-05-23 06:21 51°13.665 2°55.912 0.1 38 11.4 102350 41
2011-05-23 06:22 51°13.69 2°55.812 0.1 35 11.4 102350 40
2011-05-23 06:23 51°13.695 2°55.741 3 31 11.4 102350 41
2011-05-23 06:24 51°13.698 2°55.73 -999 35 11.4 102350 41
2011-05-23 06:25 51°13.733 2°55.718 2.5 269 11.5 102350 41
2011-05-23 06:26 51°13.813 2°55.644 -999 238 11.6 102350 41
2011-05-23 06:27 51°13.938 2°55.558 -999 242 11.7 102350 41
2011-05-23 06:28 51°14.085 2°55.452 -999 235 11.8 102350 41
2011-05-23 06:29 51°14.233 2°55.343 -999 316 11.9 102350 41
2011-05-23 06:30 51°14.389 2°55.18 8.1 237 11.9 102330 41
2011-05-23 06:31 51°14.559 2°55.015 6.6 238 11.9 102350 41
2011-05-23 06:32 51°14.758 2°54.904 4.7 246 12 102350 41
2011-05-23 06:33 51°14.974 2°54.799 6.9 244 12.1 102350 40
2011-05-23 06:34 51°15.184 2°54.701 7.2 254 12.2 102340 41
2011-05-23 06:35 51°15.402 2°54.618 9.3 243 12.2 102340 41
2011-05-23 06:36 51°15.613 2°54.515 9.4 247 12.2 102320 41
2011-05-23 06:37 51°15.827 2°54.429 7.5 247 12.2 102330 41
2011-05-23 06:38 51°16.004 2°54.327 6 253 12.3 102320 41
2011-05-23 06:39 51°16.124 2°54.267 7.1 259 12.3 102330 41
2011-05-23 06:40 51°16.224 2°54.244 4.7 266 12.3 102340 41
2011-05-23 06:41 51°16.274 2°54.239 7.5 268 12.3 102330 40
2011-05-23 06:42 51°16.282 2°54.263 7.4 40 12.2 102330 41
2011-05-23 06:43 51°16.292 2°54.287 8 31 12.1 102330 39
2011-05-23 06:44 51°16.304 2°54.311 7.2 33 12.1 102330 40
2011-05-23 06:45 51°16.316 2°54.334 6.6 35 12 102330 41
2011-05-23 06:46 51°16.329 2°54.357 8.3 269 12.1 102340 40
2011-05-23 06:47 51°16.342 2°54.379 6 268 12.1 102340 41
2011-05-23 06:48 51°16.356 2°54.398 4.4 265 12.1 102340 41
2011-05-23 06:49 51°16.37 2°54.419 4.9 264 12.2 102340 41
2011-05-23 06:50 51°16.383 2°54.442 6.2 267 12.2 102340 41
2011-05-23 06:51 51°16.401 2°54.459 8.2 257 12.2 102340 41
2011-05-23 06:52 51°16.422 2°54.423 7.7 35 12.2 102330 41
2011-05-23 06:53 51°16.404 2°54.374 8.2 339 12.3 102330 41
2011-05-23 06:54 51°16.304 2°54.292 14.4 330 12.3 102320 40
2011-05-23 06:55 51°16.202 2°54.124 9.3 325 12.3 102310 40
2011-05-23 06:56 51°16.192 2°54.033 8.5 250 12.3 102310 39
2011-05-23 06:57 51°16.209 2°54.032 6.1 264 12.4 102340 40
2011-05-23 06:58 51°16.227 2°54.041 4.6 264 12.4 102350 41
2011-05-23 06:59 51°16.243 2°54.054 4.7 262 12.5 102360 39
2011-05-23 07:00 51°16.256 2°54.068 5.5 264 12.5 102350 41
2011-05-23 07:01 51°16.27 2°54.083 5.7 266 12.5 102360 39
2011-05-23 07:02 51°16.283 2°54.1 4.5 263 12.5 102350 41
2011-05-23 07:03 51°16.296 2°54.116 6.2 265 12.5 102340 40
2011-05-23 07:04 51°16.309 2°54.134 -999 268 12.6 102360 40
2011-05-23 07:05 51°16.321 2°54.15 5 263 12.7 102360 40
2011-05-23 07:06 51°16.334 2°54.166 5.2 263 12.7 102350 41
2011-05-23 07:07 51°16.345 2°54.184 5.8 263 12.8 102350 39
2011-05-23 07:08 51°16.356 2°54.203 6 261 12.7 102360 39
2011-05-23 07:09 51°16.366 2°54.222 6.3 269 12.7 102360 41
2011-05-23 07:10 51°16.377 2°54.241 6.3 264 12.7 102370 39
2011-05-23 07:11 51°16.387 2°54.259 6.9 262 12.7 102370 40
2011-05-23 07:12 51°16.396 2°54.279 7.4 270 12.6 102350 40
2011-05-23 07:13 51°16.406 2°54.297 7.4 268 12.7 102360 40
2011-05-23 07:14 51°16.416 2°54.316 9 269 12.8 102360 39
2011-05-23 07:15 51°16.427 2°54.334 5.8 267 12.7 102340 39
2011-05-23 07:16 51°16.448 2°54.34 5.5 270 12.7 102360 40
2011-05-23 07:17 51°16.51 2°54.348 4 265 12.7 102370 39
2011-05-23 07:18 51°16.575 2°54.264 8.2 243 12.7 102340 39
2011-05-23 07:19 51°16.666 2°54.036 4.8 235 12.9 102320 40
2011-05-23 07:20 51°16.765 2°53.744 12 34 12.9 102310 39
2011-05-23 07:21 51°16.873 2°53.447 5 236 12.9 102300 39
2011-05-23 07:22 51°16.998 2°53.174 6.2 235 12.9 102310 38
2011-05-23 07:23 51°17.102 2°52.875 5.5 30 12.9 102300 39
2011-05-23 07:24 51°17.213 2°52.572 4.4 234 13 102310 39
2011-05-23 07:25 51°17.349 2°52.303 10.3 241 13.1 102320 39
2011-05-23 07:26 51°17.51 2°52.069 8.8 241 13.1 102320 39
2011-05-23 07:27 51°17.665 2°51.824 10.4 240 13.1 102300 39
2011-05-23 07:28 51°17.828 2°51.588 5 239 13.1 102300 39
2011-05-23 07:29 51°17.999 2°51.368 9.7 237 13.1 102310 38
2011-05-23 07:30 51°18.167 2°51.136 9.9 31 13.2 102310 39
2011-05-23 07:31 51°18.339 2°50.92 6.9 250 13.1 102300 39
2011-05-23 07:32 51°18.454 2°50.852 6.1 31 13.1 102330 38
2011-05-23 07:33 51°18.479 2°50.858 8.2 34 13 102360 38
2011-05-23 07:34 51°18.489 2°50.871 9.4 34 13 102360 38
2011-05-23 07:35 51°18.502 2°50.885 6.8 39 12.9 102360 39
2011-05-23 07:36 51°18.514 2°50.897 7 269 12.9 102370 39
2011-05-23 07:37 51°18.527 2°50.909 5.7 266 12.9 102360 40
2011-05-23 07:38 51°18.538 2°50.919 6.6 265 13 102340 38
2011-05-23 07:39 51°18.55 2°50.93 7.4 268 13 102340 38
2011-05-23 07:40 51°18.562 2°50.942 4.8 265 13.1 102350 38
2011-05-23 07:41 51°18.574 2°50.954 5 263 13 102340 39
2011-05-23 07:42 51°18.585 2°50.967 6.8 267 13.1 102350 38
2011-05-23 07:43 51°18.595 2°50.979 6.2 268 13.2 102350 38
2011-05-23 07:44 51°18.606 2°50.992 7.5 268 13.2 102350 38
2011-05-23 07:45 51°18.617 2°51.004 5.6 269 13.1 102350 39
2011-05-23 07:46 51°18.627 2°51.017 5.9 263 13.2 102350 38
2011-05-23 07:47 51°18.638 2°51.032 6.1 263 13.1 102340 37
2011-05-23 07:48 51°18.647 2°51.047 5.9 267 13.1 102340 39
2011-05-23 07:49 51°18.655 2°51.06 7.7 267 13.2 102350 38
2011-05-23 07:50 51°18.663 2°51.073 7.2 266 13.2 102340 39
2011-05-23 07:51 51°18.673 2°51.086 9.1 31 13.1 102350 38
2011-05-23 07:52 51°18.721 2°51.112 4.8 31 13 102350 39
2011-05-23 07:53 51°18.73 2°51.203 7.4 18 13 102320 39
2011-05-23 07:54 51°18.676 2°51.255 10.6 353 13.1 102320 39
2011-05-23 07:55 51°18.553 2°51.212 11.6 340 13.1 102310 39
2011-05-23 07:56 51°18.406 2°51.077 13 332 13.2 102320 39
2011-05-23 07:57 51°18.362 2°50.954 9.7 34 13.2 102320 38
2011-05-23 07:58 51°18.374 2°50.917 11.9 256 13.2 102320 38
2011-05-23 07:59 51°18.39 2°50.919 6.7 267 13.3 102350 39
2011-05-23 08:00 51°18.405 2°50.925 4.8 267 13.3 102360 38
2011-05-23 08:01 51°18.419 2°50.93 7 264 13.3 102350 38
2011-05-23 08:02 51°18.43 2°50.935 6.1 264 13.3 102350 39
2011-05-23 08:03 51°18.442 2°50.942 5.3 263 13.1 102360 38
2011-05-23 08:04 51°18.452 2°50.951 5.4 266 13.2 102350 38
2011-05-23 08:05 51°18.462 2°50.958 6.8 266 13.3 102360 40
2011-05-23 08:06 51°18.473 2°50.965 6.4 264 13.1 102350 39
2011-05-23 08:07 51°18.484 2°50.972 5.7 264 13.2 102350 38
2011-05-23 08:08 51°18.511 2°50.958 5.2 266 13.2 102360 39
2011-05-23 08:09 51°18.58 2°50.969 4.9 39 13.3 102350 39
2011-05-23 08:10 51°18.633 2°51.084 -999 45 13.4 102340 38
2011-05-23 08:11 51°18.691 2°51.32 -999 29 13.4 102340 38
2011-05-23 08:12 51°18.751 2°51.615 4.9 28 13.5 102340 39
2011-05-23 08:13 51°18.818 2°51.93 2.1 26 13.4 102340 37
2011-05-23 08:14 51°18.893 2°52.247 -999 22 13.3 102340 38
2011-05-23 08:15 51°18.969 2°52.56 -999 26 13.4 102340 38
2011-05-23 08:16 51°19.037 2°52.88 -999 25 13.5 102340 38
2011-05-23 08:17 51°19.104 2°53.203 -999 25 13.4 102340 37
2011-05-23 08:18 51°19.179 2°53.515 -999 37 13.5 102340 37
2011-05-23 08:19 51°19.242 2°53.837 -999 21 13.4 102330 37
2011-05-23 08:20 51°19.295 2°54.159 3.7 27 13.5 102330 38
2011-05-23 08:21 51°19.341 2°54.48 3.2 21 13.5 102330 38
2011-05-23 08:22 51°19.389 2°54.801 4.1 28 13.6 102330 39
2011-05-23 08:23 51°19.451 2°55.115 2.8 29 13.6 102330 37
2011-05-23 08:24 51°19.512 2°55.43 4.4 24 13.7 102330 39
2011-05-23 08:25 51°19.584 2°55.743 0.4 28 13.6 102330 36
2011-05-23 08:26 51°19.646 2°56.06 -999 13 13.7 102330 37
2011-05-23 08:27 51°19.701 2°56.383 -999 23 13.7 102330 37
2011-05-23 08:28 51°19.758 2°56.7 -999 25 13.6 102330 37
2011-05-23 08:29 51°19.819 2°57.015 -999 29 13.7 102330 36
2011-05-23 08:30 51°19.859 2°57.337 -999 15 13.7 102330 37
2011-05-23 08:31 51°19.904 2°57.661 -999 30 13.9 102330 37
2011-05-23 08:32 51°19.957 2°57.977 3.4 23 13.9 102330 37
2011-05-23 08:33 51°20.003 2°58.303 2 19 13.9 102330 37
2011-05-23 08:34 51°20.056 2°58.626 -999 24 14 102330 37
2011-05-23 08:35 51°20.101 2°58.948 -999 29 14 102320 36
2011-05-23 08:36 51°20.145 2°59.267 -999 25 13.9 102320 36
2011-05-23 08:37 51°20.194 2°59.583 -999 32 13.9 102320 35
2011-05-23 08:38 51°20.241 2°59.898 0.1 29 14 102320 36
2011-05-23 08:39 51°20.298 3°0.212 -999 24 14.1 102320 36
2011-05-23 08:40 51°20.343 3°0.533 -999 23 14.1 102310 36
2011-05-23 08:41 51°20.388 3°0.852 5.5 29 14.2 102310 36
2011-05-23 08:42 51°20.443 3°1.167 0.1 22 14.1 102310 35
2011-05-23 08:43 51°20.495 3°1.481 4.7 29 14.2 102310 37
2011-05-23 08:44 51°20.547 3°1.793 4 26 14.2 102310 37
2011-05-23 08:45 51°20.593 3°2.109 -999 32 14.3 102310 36
2011-05-23 08:46 51°20.628 3°2.375 -999 37 14.4 102310 37
2011-05-23 08:47 51°20.678 3°2.515 7.3 54 14.3 102310 36
2011-05-23 08:48 51°20.735 3°2.506 7.1 262 14.3 102320 35
2011-05-23 08:49 51°20.737 3°2.501 5.7 307 14.3 102310 36
2011-05-23 08:50 51°20.736 3°2.495 9.7 39 14.4 102310 37
2011-05-23 08:51 51°20.738 3°2.488 7.9 39 14.3 102320 35
2011-05-23 08:52 51°20.742 3°2.481 10.3 34 14.2 102320 36
2011-05-23 08:53 51°20.747 3°2.475 8.8 303 14.2 102310 35
2011-05-23 08:54 51°20.752 3°2.467 6.5 265 14.1 102310 34
2011-05-23 08:55 51°20.757 3°2.456 4.7 265 14.2 102310 37
2011-05-23 08:56 51°20.762 3°2.448 5.4 306 14.3 102300 37
2011-05-23 08:57 51°20.764 3°2.44 6.8 268 14.3 102310 37
2011-05-23 08:58 51°20.767 3°2.433 6.3 306 14.3 102320 36
2011-05-23 08:59 51°20.769 3°2.425 8.3 267 14.3 102310 34
2011-05-23 09:00 51°20.771 3°2.418 7.9 309 14.3 102310 36
2011-05-23 09:01 51°20.774 3°2.41 7.1 37 14.3 102310 35
2011-05-23 09:02 51°20.778 3°2.401 6.2 304 14.4 102310 36
2011-05-23 09:03 51°20.781 3°2.391 5.6 303 14.4 102300 35
2011-05-23 09:04 51°20.784 3°2.38 7.8 304 14.4 102310 36
2011-05-23 09:05 51°20.788 3°2.371 6.1 267 14.4 102310 35
2011-05-23 09:06 51°20.791 3°2.363 5.7 266 14.4 102310 35
2011-05-23 09:07 51°20.793 3°2.353 6.3 307 14.4 102310 33
2011-05-23 09:08 51°20.837 3°2.352 4.4 34 14.4 102310 35
2011-05-23 09:09 51°20.887 3°2.517 4.2 32 14.5 102290 34
2011-05-23 09:10 51°20.958 3°2.79 0.1 32 14.5 102300 35
2011-05-23 09:11 51°21.031 3°3.085 -999 19 14.6 102290 35
2011-05-23 09:12 51°21.108 3°3.375 -999 29 14.6 102290 34
2011-05-23 09:13 51°21.17 3°3.675 -999 15 14.6 102300 34
2011-05-23 09:14 51°21.235 3°3.971 -999 31 14.7 102290 33
2011-05-23 09:15 51°21.312 3°4.259 -999 32 14.8 102300 32
2011-05-23 09:16 51°21.388 3°4.547 2.7 33 14.9 102290 35
2011-05-23 09:17 51°21.457 3°4.84 0.2 21 14.9 102290 35
2011-05-23 09:18 51°21.529 3°5.132 -999 24 15 102290 34
2011-05-23 09:19 51°21.598 3°5.418 3.5 21 14.9 102290 34
2011-05-23 09:20 51°21.666 3°5.708 0.2 24 15 102290 34
2011-05-23 09:21 51°21.723 3°6.001 4.1 23 14.9 102290 34
2011-05-23 09:22 51°21.77 3°6.294 4.3 23 15 102290 34
2011-05-23 09:23 51°21.817 3°6.588 5.1 19 15.1 102290 34
2011-05-23 09:24 51°21.874 3°6.875 5.4 27 15.1 102280 35
2011-05-23 09:25 51°21.93 3°7.159 8 24 15 102280 33
2011-05-23 09:26 51°21.981 3°7.443 5.3 23 15.1 102280 35
2011-05-23 09:27 51°22.037 3°7.731 5.5 22 15 102280 34
2011-05-23 09:28 51°22.075 3°8.025 5.7 19 15.1 102280 35
2011-05-23 09:29 51°22.106 3°8.32 7.5 24 15.1 102280 35
2011-05-23 09:30 51°22.125 3°8.622 7.1 27 15 102280 32
2011-05-23 09:31 51°22.148 3°8.919 6.8 29 15.1 102280 31
2011-05-23 09:32 51°22.167 3°9.219 10 24 15.1 102280 32
2011-05-23 09:33 51°22.183 3°9.516 6.3 31 15.1 102280 32
2011-05-23 09:34 51°22.212 3°9.809 7.1 32 15.2 102280 33
2011-05-23 09:35 51°22.238 3°10.106 6.5 28 15.2 102280 33
2011-05-23 09:36 51°22.259 3°10.406 5.4 29 15.2 102280 33
2011-05-23 09:37 51°22.291 3°10.705 4.3 32 15.3 102280 33
2011-05-23 09:38 51°22.314 3°10.999 6.5 30 15.3 102290 33
2011-05-23 09:39 51°22.343 3°11.292 4 24 15.3 102290 31
2011-05-23 09:40 51°22.382 3°11.579 6.2 19 15.4 102280 32
2011-05-23 09:41 51°22.42 3°11.871 4.5 21 15.4 102290 32
2011-05-23 09:42 51°22.449 3°12.164 6.7 16 15.5 102280 33
2011-05-23 09:43 51°22.49 3°12.455 7.8 10 15.5 102280 33
2011-05-23 09:44 51°22.519 3°12.719 5.8 26 15.5 102270 31
2011-05-23 09:45 51°22.536 3°12.891 9.1 30 15.6 102280 32
2011-05-23 09:46 51°22.549 3°13.013 6 33 15.6 102270 31
2011-05-23 09:47 51°22.57 3°13.121 7.1 29 15.5 102270 29
2011-05-23 09:48 51°22.608 3°13.19 6.2 39 15.5 102280 31
2011-05-23 09:49 51°22.651 3°13.17 10.5 37 15.5 102290 31
2011-05-23 09:50 51°22.656 3°13.139 7.4 270 15.5 102300 31
2011-05-23 09:51 51°22.657 3°13.11 10.1 34 15.6 102290 32
2011-05-23 09:52 51°22.662 3°13.081 10.5 34 15.6 102290 32
2011-05-23 09:53 51°22.667 3°13.053 7.3 34 15.7 102290 33
2011-05-23 09:54 51°22.671 3°13.026 9 38 15.7 102310 31
2011-05-23 09:55 51°22.676 3°12.999 9.1 42 15.7 102280 31
2011-05-23 09:56 51°22.682 3°12.97 8.8 270 15.6 102300 31
2011-05-23 09:57 51°22.688 3°12.942 9.3 40 15.7 102290 31
2011-05-23 09:58 51°22.694 3°12.915 5.6 265 15.7 102290 30
2011-05-23 09:59 51°22.728 3°12.877 5.9 35 15.7 102290 31
2011-05-23 10:00 51°22.763 3°12.923 8.3 23 15.7 102270 31
2011-05-23 10:01 51°22.702 3°13.051 11 359 15.7 102260 31
2011-05-23 10:02 51°22.576 3°13.208 7.4 4 15.7 102230 30
2011-05-23 10:03 51°22.499 3°13.283 4.7 16 15.6 102220 30
2011-05-23 10:04 51°22.509 3°13.403 7.8 34 15.7 102260 31
2011-05-23 10:05 51°22.585 3°13.412 6 31 15.8 102280 30
2011-05-23 10:06 51°22.605 3°13.379 10 266 15.8 102280 31
2011-05-23 10:07 51°22.601 3°13.358 9.1 37 15.8 102280 30
2011-05-23 10:08 51°22.602 3°13.336 9.9 38 15.8 102280 31
2011-05-23 10:09 51°22.607 3°13.315 10.2 35 15.8 102290 30
2011-05-23 10:10 51°22.614 3°13.29 8.3 268 15.8 102280 31
2011-05-23 10:11 51°22.62 3°13.261 6.5 267 15.9 102270 31
2011-05-23 10:12 51°22.627 3°13.235 8.3 269 15.9 102260 30
2011-05-23 10:13 51°22.634 3°13.208 7.8 266 15.9 102270 30
2011-05-23 10:14 51°22.651 3°13.171 10.2 257 16 102260 30
2011-05-23 10:15 51°22.729 3°13.081 9.1 260 16.1 102270 31
2011-05-23 10:16 51°22.895 3°12.956 13 255 16.2 102250 32
2011-05-23 10:17 51°23.088 3°12.789 11.4 247 16.2 102250 32
2011-05-23 10:18 51°23.286 3°12.627 9.1 249 16.2 102250 32
2011-05-23 10:19 51°23.481 3°12.486 10.8 254 16.2 102250 33
2011-05-23 10:20 51°23.674 3°12.321 8.7 249 16.2 102260 32
2011-05-23 10:21 51°23.854 3°12.113 10.2 243 16.2 102240 32
2011-05-23 10:22 51°24.011 3°11.853 9.2 241 16.2 102250 32
2011-05-23 10:23 51°24.133 3°11.537 11.6 236 16.1 102240 33
2011-05-23 10:24 51°24.21 3°11.18 15.2 234 16 102210 32
2011-05-23 10:25 51°24.279 3°10.821 11.7 36 15.9 102200 33
2011-05-23 10:26 51°24.343 3°10.458 6.6 37 15.9 102210 33
2011-05-23 10:27 51°24.394 3°10.086 12.5 36 15.8 102210 33
2011-05-23 10:28 51°24.45 3°9.732 6.6 234 15.8 102200 32
2011-05-23 10:29 51°24.509 3°9.377 15.8 37 15.8 102210 33
2011-05-23 10:30 51°24.559 3°9.019 6.4 35 15.7 102200 32
2011-05-23 10:31 51°24.619 3°8.671 13 36 15.8 102220 33
2011-05-23 10:32 51°24.673 3°8.325 12.7 235 15.8 102210 32
2011-05-23 10:33 51°24.724 3°7.98 13.8 36 15.8 102220 33
2011-05-23 10:34 51°24.788 3°7.646 6.9 234 15.8 102220 33
2011-05-23 10:35 51°24.851 3°7.31 6.9 36 15.8 102220 34
2011-05-23 10:36 51°24.907 3°6.972 4.4 36 15.8 102210 33
2011-05-23 10:37 51°24.973 3°6.639 7 37 15.7 102220 33
2011-05-23 10:38 51°25.038 3°6.305 5.6 233 15.7 102200 33
2011-05-23 10:39 51°25.167 3°6.031 10.3 250 15.7 102210 34
2011-05-23 10:40 51°25.358 3°6.029 0.1 37 15.8 102240 34
2011-05-23 10:41 51°25.427 3°6.301 4.1 35 15.8 102240 33
2011-05-23 10:42 51°25.553 3°6.54 0.1 40 15.8 102250 34
2011-05-23 10:43 51°25.694 3°6.767 -999 35 15.8 102250 34
2011-05-23 10:44 51°25.83 3°7.005 -999 41 15.8 102250 33
2011-05-23 10:45 51°25.965 3°7.251 2.4 37 15.7 102250 32
2011-05-23 10:46 51°26.085 3°7.496 -999 33 15.7 102250 34
2011-05-23 10:47 51°26.169 3°7.787 4.8 37 15.8 102240 33
2011-05-23 10:48 51°26.268 3°8.072 -999 32 15.8 102250 33
2011-05-23 10:49 51°26.347 3°8.332 6.5 38 15.8 102240 33
2011-05-23 10:50 51°26.408 3°8.48 4.3 32 15.8 102240 33
2011-05-23 10:51 51°26.458 3°8.496 9.2 39 15.8 102260 33
2011-05-23 10:52 51°26.463 3°8.494 8.2 268 15.8 102260 32
2011-05-23 10:53 51°26.462 3°8.499 6.3 270 15.8 102260 34
2011-05-23 10:54 51°26.462 3°8.504 9.2 34 15.8 102260 34
2011-05-23 10:55 51°26.461 3°8.506 8.7 270 15.9 102250 33
2011-05-23 10:56 51°26.459 3°8.512 8.4 269 15.8 102240 33
2011-05-23 10:57 51°26.457 3°8.516 7.8 268 15.8 102250 34
2011-05-23 10:58 51°26.456 3°8.519 9.1 43 15.9 102240 34
2011-05-23 10:59 51°26.455 3°8.524 9.5 265 15.8 102250 33
2011-05-23 11:00 51°26.454 3°8.529 7.8 265 15.9 102250 33
2011-05-23 11:01 51°26.455 3°8.533 9.7 263 15.9 102250 33
2011-05-23 11:02 51°26.455 3°8.539 7.2 263 15.9 102250 34
2011-05-23 11:03 51°26.454 3°8.544 6.9 262 15.9 102230 34
2011-05-23 11:04 51°26.452 3°8.55 6.3 266 15.8 102260 34
2011-05-23 11:05 51°26.45 3°8.557 7.3 265 15.9 102250 34
2011-05-23 11:06 51°26.446 3°8.564 6.7 267 15.8 102250 33
2011-05-23 11:07 51°26.442 3°8.572 6.1 268 15.8 102240 34
2011-05-23 11:08 51°26.448 3°8.574 7.9 38 15.8 102250 34
2011-05-23 11:09 51°26.492 3°8.647 8.2 27 15.8 102250 34
2011-05-23 11:10 51°26.42 3°8.721 12.6 348 15.9 102220 34
2011-05-23 11:11 51°26.276 3°8.575 8.1 325 15.8 102200 33
2011-05-23 11:12 51°26.193 3°8.262 7.3 322 15.9 102210 33
2011-05-23 11:13 51°26.139 3°7.938 15.5 324 16 102200 34
2011-05-23 11:14 51°26.088 3°7.607 7.1 319 16 102210 34
2011-05-23 11:15 51°26.095 3°7.273 6.9 33 16 102210 33
2011-05-23 11:16 51°26.202 3°6.992 5.3 236 15.9 102190 34
2011-05-23 11:17 51°26.327 3°6.733 13.1 240 15.9 102210 35
2011-05-23 11:18 51°26.451 3°6.47 6 237 15.9 102200 33
2011-05-23 11:19 51°26.584 3°6.22 11.7 240 15.9 102210 34
2011-05-23 11:20 51°26.72 3°5.975 9.7 31 15.9 102210 34
2011-05-23 11:21 51°26.853 3°5.719 5.5 239 16 102200 35
2011-05-23 11:22 51°26.979 3°5.465 13.8 239 15.9 102190 35
2011-05-23 11:23 51°27.113 3°5.207 6.1 241 15.9 102180 32
2011-05-23 11:24 51°27.247 3°4.964 11.1 243 15.9 102190 34
2011-05-23 11:25 51°27.384 3°4.715 10 239 15.9 102190 34
2011-05-23 11:26 51°27.526 3°4.475 5.1 246 15.9 102180 35
2011-05-23 11:27 51°27.694 3°4.283 9.6 243 15.9 102190 35
2011-05-23 11:28 51°27.851 3°4.069 5.7 247 15.9 102180 34
2011-05-23 11:29 51°28.004 3°3.845 12.7 243 15.9 102190 34
2011-05-23 11:30 51°28.142 3°3.627 10 249 15.9 102170 34
2011-05-23 11:31 51°28.215 3°3.553 3.7 43 15.9 102220 32
2011-05-23 11:32 51°28.251 3°3.539 8.8 269 15.9 102210 34
2011-05-23 11:33 51°28.254 3°3.525 7.5 262 15.8 102200 35
2011-05-23 11:34 51°28.248 3°3.518 8 262 15.8 102210 34
2011-05-23 11:35 51°28.24 3°3.512 8 263 15.8 102200 34
2011-05-23 11:36 51°28.233 3°3.507 4.3 263 15.7 102200 34
2011-05-23 11:37 51°28.224 3°3.504 7.6 267 15.8 102210 35
2011-05-23 11:38 51°28.218 3°3.499 7.3 263 15.7 102200 34
2011-05-23 11:39 51°28.212 3°3.492 7 264 15.8 102210 33
2011-05-23 11:40 51°28.204 3°3.487 6 262 15.7 102200 35
2011-05-23 11:41 51°28.197 3°3.484 7.7 263 15.7 102210 35
2011-05-23 11:42 51°28.189 3°3.482 6.9 268 15.6 102180 35
2011-05-23 11:43 51°28.18 3°3.48 8.9 266 15.6 102200 35
2011-05-23 11:44 51°28.173 3°3.475 6.5 266 15.6 102190 34
2011-05-23 11:45 51°28.164 3°3.471 9.4 268 15.7 102200 35
2011-05-23 11:46 51°28.157 3°3.467 10.1 267 15.7 102180 34
2011-05-23 11:47 51°28.151 3°3.462 6.3 264 15.7 102170 32
2011-05-23 11:48 51°28.144 3°3.459 7 264 15.7 102190 34
2011-05-23 11:49 51°28.137 3°3.455 4.4 261 15.8 102190 35
2011-05-23 11:50 51°28.13 3°3.45 10.5 260 15.8 102200 35
2011-05-23 11:51 51°28.125 3°3.445 7.4 262 15.8 102190 34
2011-05-23 11:52 51°28.12 3°3.438 8.1 263 15.8 102190 34
2011-05-23 11:53 51°28.114 3°3.431 7.3 261 15.8 102200 33
2011-05-23 11:54 51°28.108 3°3.425 6.1 264 15.9 102190 34
2011-05-23 11:55 51°28.1 3°3.419 7 264 15.9 102190 32
2011-05-23 11:56 51°28.093 3°3.414 5.4 262 15.9 102200 35
2011-05-23 11:57 51°28.123 3°3.372 4.6 265 15.9 102190 34
2011-05-23 11:58 51°28.2 3°3.425 5.1 41 15.9 102180 35
2011-05-23 11:59 51°28.253 3°3.542 7.2 37 15.9 102180 35
2011-05-23 12:00 51°28.304 3°3.525 8.7 268 15.9 102180 34
2011-05-23 12:01 51°28.308 3°3.505 4.4 260 15.9 102180 35
2011-05-23 12:02 51°28.304 3°3.493 9.4 257 15.9 102180 34
2011-05-23 12:03 51°28.298 3°3.486 4.3 259 15.9 102180 32
2011-05-23 12:04 51°28.29 3°3.481 5 264 16 102180 34
2011-05-23 12:05 51°28.281 3°3.477 6.5 267 15.9 102170 33
2011-05-23 12:06 51°28.282 3°3.459 8.1 252 16 102180 34
2011-05-23 12:07 51°28.286 3°3.358 10.1 326 16 102150 33
2011-05-23 12:08 51°28.195 3°3.12 7.5 329 16 102150 33
2011-05-23 12:09 51°28.068 3°2.819 5.6 328 16 102120 33
2011-05-23 12:10 51°27.963 3°2.493 2.6 326 16 102120 33
2011-05-23 12:11 51°27.848 3°2.175 8.1 328 16 102100 31
2011-05-23 12:12 51°27.723 3°1.866 7.8 328 16 102110 33
2011-05-23 12:13 51°27.575 3°1.583 13.8 331 16 102130 33
2011-05-23 12:14 51°27.434 3°1.285 4.9 327 16 102120 34
2011-05-23 12:15 51°27.317 3°0.954 7.7 325 16 102100 34
2011-05-23 12:16 51°27.213 3°0.615 7.6 325 15.9 102100 34
2011-05-23 12:17 51°27.163 3°0.249 7 319 16 102090 34
2011-05-23 12:18 51°27.114 2°59.892 7.5 320 16 102090 34
2011-05-23 12:19 51°27.054 2°59.533 11.7 322 15.9 102090 33
2011-05-23 12:20 51°26.996 2°59.175 4.8 320 15.9 102070 35
2011-05-23 12:21 51°26.955 2°58.815 4 319 15.9 102090 34
2011-05-23 12:22 51°26.906 2°58.459 4.4 320 15.8 102080 34
2011-05-23 12:23 51°26.863 2°58.102 8.1 320 15.9 102080 35
2011-05-23 12:24 51°26.809 2°57.743 12.8 323 15.8 102080 35
2011-05-23 12:25 51°26.766 2°57.391 16.8 320 15.8 102090 34
2011-05-23 12:26 51°26.726 2°57.034 17.8 322 15.7 102080 35
2011-05-23 12:27 51°26.682 2°56.677 4.4 326 15.7 102080 33
2011-05-23 12:28 51°26.628 2°56.324 18.8 323 15.7 102080 35
2011-05-23 12:29 51°26.577 2°55.97 5.1 321 15.7 102090 35
2011-05-23 12:30 51°26.535 2°55.615 7.7 324 15.7 102080 35
2011-05-23 12:31 51°26.492 2°55.258 7.8 322 15.6 102090 35
2011-05-23 12:32 51°26.44 2°54.902 7.8 324 15.6 102090 35
2011-05-23 12:33 51°26.392 2°54.544 16 320 15.5 102080 35
2011-05-23 12:34 51°26.367 2°54.178 6.9 323 15.5 102070 35
2011-05-23 12:35 51°26.341 2°53.816 4.1 322 15.5 102070 34
2011-05-23 12:36 51°26.307 2°53.454 4.5 324 15.4 102050 35
2011-05-23 12:37 51°26.27 2°53.092 7.4 322 15.4 102060 35
2011-05-23 12:38 51°26.242 2°52.727 7 322 15.4 102060 35
2011-05-23 12:39 51°26.218 2°52.359 13.9 321 15.4 102060 35
2011-05-23 12:40 51°26.187 2°51.992 4.4 322 15.4 102050 35
2011-05-23 12:41 51°26.149 2°51.624 4.4 321 15.4 102050 36
2011-05-23 12:42 51°26.119 2°51.259 8.3 320 15.4 102030 36
2011-05-23 12:43 51°26.096 2°50.894 7.7 321 15.4 102040 34
2011-05-23 12:44 51°26.068 2°50.53 5.4 321 15.3 102040 36
2011-05-23 12:45 51°26.032 2°50.17 7.6 321 15.4 102050 36
2011-05-23 12:46 51°26.008 2°49.808 13.4 321 15.3 102050 36
2011-05-23 12:47 51°26.008 2°49.444 16.2 303 15.3 102040 36
2011-05-23 12:48 51°26 2°49.094 6.8 322 15.2 102040 35
2011-05-23 12:49 51°25.985 2°48.86 5.5 302 15.1 102060 36
2011-05-23 12:50 51°25.972 2°48.673 5.7 303 15.1 102060 36
2011-05-23 12:51 51°25.979 2°48.568 10.8 309 15.1 102050 35
2011-05-23 12:52 51°25.974 2°48.553 11.5 260 15.1 102080 36
2011-05-23 12:53 51°25.971 2°48.543 6.7 264 15.1 102090 36
2011-05-23 12:54 51°25.967 2°48.538 3.9 304 15 102090 36
2011-05-23 12:55 51°25.962 2°48.53 7.6 263 14.9 102080 35
2011-05-23 12:56 51°25.955 2°48.522 10.7 303 15 102080 36
2011-05-23 12:57 51°25.95 2°48.516 6.3 307 15 102080 36
2011-05-23 12:58 51°25.968 2°48.452 12.4 303 15 102070 37
2011-05-23 12:59 51°25.933 2°48.306 6.5 328 15 102040 35
2011-05-23 13:00 51°25.837 2°48.047 12.4 329 15 102040 36
2011-05-23 13:01 51°25.737 2°47.727 7.7 327 15 102030 37
2011-05-23 13:02 51°25.635 2°47.4 5.2 329 15 102030 37
2011-05-23 13:03 51°25.532 2°47.092 20.9 329 15 102030 36
2011-05-23 13:04 51°25.425 2°46.78 7.7 327 15 102030 36
2011-05-23 13:05 51°25.324 2°46.46 17 331 14.9 102020 36
2011-05-23 13:06 51°25.222 2°46.135 11.1 329 14.9 102040 37
2011-05-23 13:07 51°25.116 2°45.815 18.9 330 14.9 102030 35
2011-05-23 13:08 51°25.003 2°45.501 5.1 328 14.9 102050 36
2011-05-23 13:09 51°24.891 2°45.181 7.6 329 15 102050 36
2011-05-23 13:10 51°24.782 2°44.86 3.7 330 14.9 102050 37
2011-05-23 13:11 51°24.68 2°44.535 13.9 327 14.9 102030 36
2011-05-23 13:12 51°24.568 2°44.214 7.5 330 15 102040 36
2011-05-23 13:13 51°24.455 2°43.889 5 329 15 102040 36
2011-05-23 13:14 51°24.353 2°43.568 7.6 329 15 102030 37
2011-05-23 13:15 51°24.249 2°43.242 10.1 330 15 102020 35
2011-05-23 13:16 51°24.136 2°42.927 17.4 331 14.9 102020 36
2011-05-23 13:16 51°24.1 2°42.821 7.3 328 15 102030 37
2011-05-23 13:17 51°24.005 2°42.496 16.9 328 14.9 102020 37
2011-05-23 13:18 51°23.908 2°42.174 15.8 330 14.9 102020 36
2011-05-23 13:19 51°23.805 2°41.858 7.9 327 14.9 102010 37
2011-05-23 13:20 51°23.712 2°41.532 7.3 327 15 102040 36
2011-05-23 13:21 51°23.617 2°41.212 7.1 327 14.9 102010 36
2011-05-23 13:22 51°23.508 2°40.896 9.5 329 15 102020 37
2011-05-23 13:23 51°23.407 2°40.584 5 326 15 102030 37
2011-05-23 13:24 51°23.312 2°40.259 4.9 327 15 102030 36
2011-05-23 13:25 51°23.211 2°39.938 17 330 15 102020 37
2011-05-23 13:26 51°23.107 2°39.617 13.2 329 15 102010 36
2011-05-23 13:27 51°23.008 2°39.293 7.9 328 15 102010 36
2011-05-23 13:28 51°22.908 2°38.972 5.8 327 15 102000 35
2011-05-23 13:29 51°22.799 2°38.658 16.9 330 14.9 102000 37
2011-05-23 13:30 51°22.687 2°38.346 7.8 330 14.9 102020 37
2011-05-23 13:31 51°22.584 2°38.027 19 330 15 102010 37
2011-05-23 13:32 51°22.482 2°37.711 8.9 330 14.9 102010 37
2011-05-23 13:33 51°22.368 2°37.401 8.3 332 14.9 102010 37
2011-05-23 13:34 51°22.26 2°37.094 17.1 330 14.9 102010 37
2011-05-23 13:35 51°22.16 2°36.779 5.6 330 14.8 102000 37
2011-05-23 13:36 51°22.054 2°36.473 16.8 331 14.9 102020 36
2011-05-23 13:37 51°21.949 2°36.162 7.4 331 14.8 102010 37
2011-05-23 13:38 51°21.85 2°35.848 15.1 329 14.8 102010 37
2011-05-23 13:39 51°21.749 2°35.533 14.3 330 14.8 102000 37
2011-05-23 13:40 51°21.635 2°35.229 15.7 333 14.8 102010 37
2011-05-23 13:41 51°21.524 2°34.922 12.9 329 14.8 102010 37
2011-05-23 13:42 51°21.417 2°34.618 14.4 329 14.8 102010 37
2011-05-23 13:43 51°21.312 2°34.31 15 330 14.8 102000 37
2011-05-23 13:44 51°21.207 2°33.996 7.4 327 14.8 102000 36
2011-05-23 13:45 51°21.098 2°33.689 17.3 331 14.8 101990 37
2011-05-23 13:46 51°20.986 2°33.386 18.1 331 14.8 102000 37
2011-05-23 13:47 51°20.883 2°33.074 4.1 330 14.7 101990 37
2011-05-23 13:48 51°20.775 2°32.765 20.2 330 14.7 102010 37
2011-05-23 13:49 51°20.67 2°32.461 19.5 331 14.7 102000 37
2011-05-23 13:50 51°20.559 2°32.159 17.6 334 14.6 101980 37
2011-05-23 13:51 51°20.453 2°31.853 17.4 329 14.6 101990 37
2011-05-23 13:52 51°20.349 2°31.548 7.8 332 14.7 102010 36
2011-05-23 13:53 51°20.243 2°31.245 11.4 329 14.6 101990 37
2011-05-23 13:54 51°20.141 2°30.939 8 331 14.5 102010 38
2011-05-23 13:55 51°20.064 2°30.611 20.3 327 14.4 102010 37
2011-05-23 13:56 51°20 2°30.295 8.1 326 14.3 101970 37
2011-05-23 13:57 51°19.993 2°30.052 6.3 236 14.2 101990 38
2011-05-23 13:58 51°20.019 2°30.007 4.4 262 14.3 102010 37
2011-05-23 13:59 51°20.01 2°30.013 9.3 267 14.3 102050 38
2011-05-23 14:00 51°20.009 2°30.019 8.5 270 14.3 102040 36
2011-05-23 14:01 51°20.01 2°30.025 5.1 267 14.2 102050 37
2011-05-23 14:02 51°20.019 2°30.031 8.6 265 14.2 102050 37
2011-05-23 14:03 51°20.067 2°30.089 8.4 38 14.2 102030 37
2011-05-23 14:04 51°20.021 2°30.246 9 27 14.3 101990 37
2011-05-23 14:05 51°19.912 2°30.507 10.2 14 14.3 102000 37
2011-05-23 14:06 51°19.767 2°30.755 10.3 11 14.3 101990 37
2011-05-23 14:07 51°19.625 2°31.006 10.6 15 14.3 101990 38
2011-05-23 14:08 51°19.488 2°31.257 11.5 15 14.3 101990 36
2011-05-23 14:09 51°19.356 2°31.514 8.9 12 14.3 101990 38
2011-05-23 14:10 51°19.243 2°31.719 10.8 21 14.3 101990 37
2011-05-23 14:11 51°19.149 2°31.892 11.8 23 14.3 101990 37
2011-05-23 14:12 51°19.057 2°32.064 10.2 19 14.3 101980 37
2011-05-23 14:13 51°18.967 2°32.239 8.8 21 14.3 101980 37
2011-05-23 14:14 51°18.877 2°32.416 11.9 23 14.3 101990 37
2011-05-23 14:15 51°18.784 2°32.592 11.1 25 14.3 101980 37
2011-05-23 14:16 51°18.693 2°32.77 12.2 25 14.3 101980 35
2011-05-23 14:17 51°18.6 2°32.962 11.8 15 14.3 101980 38
2011-05-23 14:18 51°18.476 2°33.216 6.5 18 14.3 101970 37
2011-05-23 14:19 51°18.349 2°33.479 10.4 11 14.3 101980 38
2011-05-23 14:20 51°18.214 2°33.736 9.6 13 14.3 101970 38
2011-05-23 14:21 51°18.089 2°34.002 10.5 18 14.2 101980 36
2011-05-23 14:22 51°17.949 2°34.258 10 19 14.2 101970 38
2011-05-23 14:23 51°17.815 2°34.512 10.5 19 14.2 101970 37
2011-05-23 14:24 51°17.66 2°34.745 11.6 16 14.2 101960 36
2011-05-23 14:25 51°17.492 2°34.973 10.6 14 14.2 101950 37
2011-05-23 14:26 51°17.333 2°35.202 12 11 14.2 101950 38
2011-05-23 14:27 51°17.17 2°35.434 10.4 17 14.2 101960 38
2011-05-23 14:28 51°17.004 2°35.665 12.9 16 14.2 101950 38
2011-05-23 14:29 51°16.842 2°35.896 9.8 13 14.1 101950 38
2011-05-23 14:30 51°16.682 2°36.126 9.7 10 14.2 101950 38
2011-05-23 14:31 51°16.56 2°36.407 8.7 29 14.2 101970 38
2011-05-23 14:32 51°16.542 2°36.712 5.3 37 14.2 101980 37
2011-05-23 14:33 51°16.574 2°36.89 9.1 37 14.4 101980 38
2011-05-23 14:34 51°16.625 2°36.947 7.5 264 14.5 101980 38
2011-05-23 14:35 51°16.638 2°36.968 9.3 256 14.4 101980 38
2011-05-23 14:36 51°16.645 2°36.994 8.9 259 14.5 101970 37
2011-05-23 14:37 51°16.651 2°37.021 5.4 261 14.4 102000 38
2011-05-23 14:38 51°16.657 2°37.05 12.5 260 14.4 101990 38
2011-05-23 14:39 51°16.664 2°37.08 8.8 264 14.4 101970 38
2011-05-23 14:40 51°16.671 2°37.11 5.3 262 14.4 101960 36
2011-05-23 14:41 51°16.679 2°37.139 5.5 260 14.4 101970 38
2011-05-23 14:42 51°16.687 2°37.17 7.4 258 14.3 101940 38
2011-05-23 14:43 51°16.695 2°37.201 11 260 14.4 101940 37
2011-05-23 14:44 51°16.703 2°37.231 5.5 261 14.4 101940 36
2011-05-23 14:45 51°16.711 2°37.264 9.2 259 14.4 101930 37
2011-05-23 14:46 51°16.72 2°37.298 10.8 263 14.4 101940 37
2011-05-23 14:47 51°16.729 2°37.333 4.6 259 14.4 101940 37
2011-05-23 14:48 51°16.74 2°37.366 12 260 14.4 101940 36
2011-05-23 14:49 51°16.78 2°37.355 6.9 38 14.5 101920 37
2011-05-23 14:50 51°16.789 2°37.294 11.7 345 14.4 101920 36
2011-05-23 14:51 51°16.704 2°37.293 10.3 360 14.4 101900 36
2011-05-23 14:52 51°16.546 2°37.314 6.9 356 14.4 101900 37
2011-05-23 14:53 51°16.386 2°37.296 15.9 355 14.4 101890 37
2011-05-23 14:54 51°16.225 2°37.275 15.8 356 14.3 101890 37
2011-05-23 14:55 51°16.062 2°37.252 14.7 355 14.3 101900 37
2011-05-23 14:56 51°15.88 2°37.278 13.8 -999 14.3 101900 35
2011-05-23 14:57 51°15.683 2°37.327 15.7 356 14.4 101900 36
2011-05-23 14:58 51°15.488 2°37.351 7.5 357 14.4 101900 36
2011-05-23 14:59 51°15.297 2°37.356 11.7 357 14.4 101900 36
2011-05-23 15:00 51°15.103 2°37.371 15.2 359 14.5 101890 36
2011-05-23 15:01 51°14.907 2°37.391 7.5 356 14.5 101890 37
2011-05-23 15:02 51°14.712 2°37.407 7.6 356 14.4 101880 37
2011-05-23 15:03 51°14.516 2°37.427 12.7 353 14.4 101890 36
2011-05-23 15:04 51°14.32 2°37.44 6.6 354 14.5 101890 35
2011-05-23 15:05 51°14.126 2°37.46 14.3 357 14.5 101880 36
2011-05-23 15:06 51°13.932 2°37.462 14.7 353 14.4 101850 37
2011-05-23 15:07 51°13.739 2°37.45 7.3 354 14.5 101890 37
2011-05-23 15:08 51°13.545 2°37.436 7.8 356 14.5 101880 37
2011-05-23 15:09 51°13.351 2°37.418 8.4 352 14.5 101870 37
2011-05-23 15:10 51°13.16 2°37.371 7.7 351 14.5 101870 36
2011-05-23 15:11 51°12.972 2°37.331 5.4 352 14.5 101870 37
2011-05-23 15:12 51°12.782 2°37.294 15 353 14.5 101880 35
2011-05-23 15:13 51°12.593 2°37.26 8 355 14.5 101870 36
2011-05-23 15:14 51°12.404 2°37.217 16.1 355 14.5 101880 37
2011-05-23 15:15 51°12.215 2°37.181 13.9 354 14.5 101870 36
2011-05-23 15:16 51°12.029 2°37.134 14.6 356 14.6 101880 37
2011-05-23 15:17 51°11.847 2°37.065 14.2 357 14.6 101860 36
2011-05-23 15:18 51°11.669 2°36.986 7.6 352 14.6 101880 36
2011-05-23 15:19 51°11.492 2°36.909 16.1 354 14.5 101880 37
2011-05-23 15:20 51°11.315 2°36.825 13.6 352 14.5 101880 35
2011-05-23 15:21 51°11.138 2°36.748 12.6 354 14.5 101880 36
2011-05-23 15:22 51°10.96 2°36.673 12.2 351 14.5 101880 37
2011-05-23 15:23 51°10.785 2°36.593 4.7 353 14.5 101870 36
2011-05-23 15:24 51°10.608 2°36.519 12.8 352 14.5 101870 37
2011-05-23 15:25 51°10.426 2°36.485 11.5 1 14.5 101890 37
2011-05-23 15:26 51°10.259 2°36.642 6.7 30 14.5 101910 36
2011-05-23 15:27 51°10.236 2°36.992 0.7 38 14.6 101950 38
2011-05-23 15:28 51°10.259 2°37.366 0.1 35 14.6 101950 36
2011-05-23 15:29 51°10.276 2°37.74 -999 35 15.1 101940 35
2011-05-23 15:30 51°10.306 2°38.117 0.1 36 15.3 101950 36
2011-05-23 15:31 51°10.334 2°38.503 3.3 38 15.4 101950 36
2011-05-23 15:32 51°10.397 2°38.88 2.6 39 15.3 101950 36
2011-05-23 15:33 51°10.458 2°39.249 2.3 31 15.2 101940 36
2011-05-23 15:34 51°10.514 2°39.625 -999 38 15.2 101940 37
2011-05-23 15:35 51°10.57 2°40.002 3 32 15.2 101940 36
2011-05-23 15:36 51°10.657 2°40.371 4.4 37 15.2 101940 35
2011-05-23 15:37 51°10.736 2°40.74 1.4 36 15.2 101940 36
2011-05-23 15:38 51°10.805 2°41.112 -999 36 15.2 101940 37
2011-05-23 15:39 51°10.871 2°41.483 -999 36 15.1 101940 37
2011-05-23 15:40 51°10.939 2°41.85 -999 35 15.2 101940 37
2011-05-23 15:41 51°11.005 2°42.094 3.9 262 15.1 101930 36
2011-05-23 15:42 51°11.09 2°42.137 13.4 31 15.1 101920 37
2011-05-23 15:43 51°11.12 2°42.171 8.8 246 15.1 101900 37
2011-05-23 15:44 51°11.136 2°42.228 12.3 256 15.1 101920 36
2011-05-23 15:45 51°11.15 2°42.287 7.3 266 15 101920 37
2011-05-23 15:46 51°11.173 2°42.344 5 248 14.9 101940 37
2011-05-23 15:47 51°11.219 2°42.313 6.6 335 15 101890 37
2011-05-23 15:48 51°11.166 2°42.252 17.4 351 14.9 101890 37
2011-05-23 15:49 51°11.119 2°42.194 11.4 338 14.8 101890 38
2011-05-23 15:50 51°11.109 2°42.151 6.2 332 14.8 101900 37
2011-05-23 15:51 51°11.113 2°42.121 5.8 324 14.9 101910 38
2011-05-23 15:52 51°11.133 2°42.13 9.5 36 14.9 101890 36
2011-05-23 15:53 51°11.161 2°42.153 5.6 318 14.9 101880 38
2011-05-23 15:54 51°11.178 2°42.146 10 345 14.9 101890 37
2011-05-23 15:55 51°11.162 2°42.156 10.9 353 14.9 101870 37
2011-05-23 15:56 51°11.147 2°42.168 9.9 343 14.8 101890 37
2011-05-23 15:57 51°11.141 2°42.185 12.3 342 14.8 101890 38
2011-05-23 15:58 51°11.114 2°42.093 6.1 333 14.8 101900 38
2011-05-23 15:59 51°11.103 2°42.033 12.3 331 14.8 101890 38
2011-05-23 16:00 51°11.108 2°42.03 11.3 333 14.8 101890 36
2011-05-23 16:01 51°11.118 2°42.048 5.6 329 14.8 101890 38
2011-05-23 16:02 51°11.129 2°42.072 10.5 331 14.8 101900 37
2011-05-23 16:03 51°11.139 2°42.097 9.9 338 14.8 101900 37
2011-05-23 16:04 51°11.13 2°42.117 11.6 10 14.8 101880 37
2011-05-23 16:05 51°11.091 2°42.233 5.6 34 14.8 101880 38
2011-05-23 16:06 51°11.098 2°42.537 1.9 33 14.8 101900 38
2011-05-23 16:07 51°11.157 2°42.909 4 40 14.9 101910 38
2011-05-23 16:08 51°11.221 2°43.281 3.6 34 15 101900 37
2011-05-23 16:09 51°11.277 2°43.66 2.6 36 15 101900 38
2011-05-23 16:10 51°11.345 2°44.037 4.3 31 15 101900 37
2011-05-23 16:11 51°11.415 2°44.406 4 32 15 101900 37
2011-05-23 16:12 51°11.488 2°44.777 4.1 270 15 101900 38
2011-05-23 16:13 51°11.575 2°45.143 3.9 35 15.1 101910 37
2011-05-23 16:14 51°11.669 2°45.5 4.6 35 15.1 101900 39
2011-05-23 16:15 51°11.765 2°45.859 4.2 34 15.1 101910 37
2011-05-23 16:16 51°11.855 2°46.217 3.7 34 15.1 101900 37
2011-05-23 16:17 51°11.945 2°46.586 0.1 35 15.1 101910 37
2011-05-23 16:18 51°12.037 2°46.953 2.8 270 15 101900 38
2011-05-23 16:19 51°12.131 2°47.315 2.6 31 15 101900 37
2011-05-23 16:20 51°12.222 2°47.681 0.4 32 15 101900 37
2011-05-23 16:21 51°12.315 2°48.05 3 267 15 101900 37
2011-05-23 16:22 51°12.411 2°48.422 2.9 270 15.1 101910 37
2011-05-23 16:23 51°12.505 2°48.792 4.3 43 15 101900 38
2011-05-23 16:24 51°12.6 2°49.158 2.2 264 15.1 101910 35
2011-05-23 16:25 51°12.709 2°49.509 3 264 15 101910 39
2011-05-23 16:26 51°12.824 2°49.854 3.3 259 15.1 101900 37
2011-05-23 16:27 51°12.936 2°50.207 0.1 265 15.1 101910 37
2011-05-23 16:28 51°13.059 2°50.546 3.6 259 15.1 101910 37
2011-05-23 16:29 51°13.181 2°50.885 3.9 265 15.1 101910 37
2011-05-23 16:30 51°13.29 2°51.228 3.6 265 15.2 101900 38
2011-05-23 16:31 51°13.402 2°51.569 4.2 262 15.2 101900 38
2011-05-23 16:32 51°13.522 2°51.907 -999 265 15.2 101900 35
2011-05-23 16:33 51°13.636 2°52.256 0.1 267 15.2 101910 37
2011-05-23 16:34 51°13.759 2°52.594 3 270 15.2 101900 37
2011-05-23 16:35 51°13.876 2°52.936 2 264 15.2 101900 37
2011-05-23 16:36 51°14.025 2°53.239 6.6 258 15.3 101910 36
2011-05-23 16:37 51°14.19 2°53.526 6.3 255 15.3 101900 38
2011-05-23 16:38 51°14.345 2°53.821 6.7 255 15.3 101900 37
2011-05-23 16:39 51°14.5 2°54.122 4.7 270 15.3 101900 37
2011-05-23 16:40 51°14.595 2°54.478 3.8 31 15.4 101890 36
2011-05-23 16:41 51°14.585 2°54.843 7.3 30 15.4 101890 36
2011-05-23 16:42 51°14.438 2°55.076 8.5 17 15.4 101870 37
2011-05-23 16:43 51°14.283 2°55.257 9.4 19 15.4 101870 37
2011-05-23 16:44 51°14.154 2°55.389 4.4 358 15.4 101880 37
2011-05-23 16:45 51°14.035 2°55.481 5.7 5 15.4 101890 36
2011-05-23 16:46 51°13.933 2°55.556 4.3 9 15.5 101890 36
2011-05-23 16:47 51°13.831 2°55.63 7.5 17 15.6 101880 36
2011-05-23 16:48 51°13.75 2°55.726 2.7 21 15.7 101890 35
2011-05-23 16:49 51°13.699 2°55.818 4.7 33 15.8 101880 37
2011-05-23 16:50 51°13.665 2°55.898 2 37 15.9 101880 37
2011-05-23 16:51 51°13.644 2°55.979 0.4 31 15.9 101890 35